METAR UND TAF INFORMATION
LEMG 240030Z 29003KT 260V330 CAVOK 24/20 Q1015 NOSIG

 FLUGHAFENKARTE

 RUNWAY INFORMATION
Runway 12 Runway length 9022 ft Runway width 148 ft
Runway elevation 52 ft Runway displaced threshold 0 ft Runway heading 119
Runway 30 Runway length 9022 ft Runway width 148 ft
Runway elevation 31 ft Runway displaced threshold 0 ft Runway heading 299
Runway 13 Runway length 10500 ft Runway width 148 ft
Runway elevation 52 ft Runway displaced threshold 0 ft Runway heading 133
Runway 31 Runway length 10500 ft Runway width 148 ft
Runway elevation 31 ft Runway displaced threshold 0 ft Runway heading 313

 AIRPORT FREQUENCIES
Type A/D Name APP Frequency 123.85 MHZ
Type ATIS Name ATIS Frequency 120.375 MHZ
Type CLD Name CLR DEL Frequency 121.875 MHZ
Type GND Name GND-W Frequency 121.7 MHZ
Type GND Name GND-E Frequency 121.95 MHZ
Type TWR Name TWR-W (RWY Frequency 118.15 MHZ
Type TWR Name TWR-E (RWY Frequency 118.775 MHZ

 AIRPORT NEAR NAVIGATION AIDS
Type VOR-DME Name Martin Frequency 112600 KHZ
Type VOR-DME Name Malaga Frequency 112000 KHZ
Type VOR-DME Name Malaga Frequency 113550 KHZ
Type NDB Name Malaga Frequency 330 KHZ